EmailTwitter


Surface observations / United Kingdom / EGUB (03658)

Regions: Quebec | Canada | USA | Europe | France | UK | Elsewhere
Station
Display
Info & Location for EGUB (03658) | Help decoding METAR

Weather Conditions observed on 2017/12/16 at 19:50 UTC at BENSON RAF, UK (EGUB)

Sky conditions: few clouds.

Temperature: 3.0 Celsius.

Dewpoint: 2.0 Celsius.

Relative Humidity: 93%

Winds: West-northwest at 6 km/h or 3 knots.

Mean Sea level Pressure: 102.10 kilopascals.

Horizontal visibility: 6.21 statute miles or 9.94 kilometers.

Coded METAR:

EGUB 161950Z AUTO 29003KT 9999 // FEW021/// 03/02 Q1021=